Flight Track Log - Related Links

Times and Time Zones

All times are in EDT time to prevent confusion due to time zone crossing. See the DAL1283 flight status page for this flight to view local times or setup timezone preferences in your user account.

Time Position Orientation Groundspeed Altitude Reporting Facility
EDT Latitude Longitude Course Direction KTS MPH feet Rate Location/Type
Fri 08:49:13 PM 44.8333 -93.2333 154° Southeast 164 189 2,600  Level Minneapolis TRACON
Fri 08:49:51 PM 44.8044 -93.2378 186° South 184 212 3,400 2,220 Climbing Minneapolis Center
Fri 08:50:53 PM 44.7319 -93.2317 177° South 251 289 6,300 1,742 Climbing Minneapolis Center
Fri 08:51:55 PM 44.6692 -93.1889 154° Southeast 280 322 7,000 290 Climbing Minneapolis Center
Fri 08:52:00 PM 44.4194 -93.0350 157° South  Level FlightAware Approximate
Fri 08:52:57 PM 44.5833 -93.1317 155° Southeast 286 329 6,900  Level Minneapolis Center
Fri 08:53:00 PM 44.3154 -92.9556 150° Southeast  Level FlightAware Approximate
Fri 08:54:00 PM 44.2087 -92.8891 154° Southeast  Level FlightAware Approximate
Fri 08:54:10 PM 44.5111 -93.0842 155° Southeast 286 329 7,300  Level Minneapolis Center
Fri 08:55:13 PM 44.4328 -93.0133 147° Southeast 284 327 11,700 3,120 Climbing Minneapolis Center
Fri 08:56:15 PM 44.3928 -92.9108 119° Southeast 305 351 13,800 1,756 Climbing Minneapolis Center
Fri 08:57:16 PM 44.3036 -92.8528 155° Southeast 356 410 15,300 2,293 Climbing Minneapolis Center
Fri 08:58:18 PM 44.1844 -92.7928 160° South 377 434 18,500 2,516 Climbing Minneapolis Center
Fri 08:59:20 PM 44.0808 -92.7436 161° South 390 449 20,500 2,081 Climbing Minneapolis Center
Fri 09:00:22 PM 43.9725 -92.6897 160° South 408 470 22,800 2,129 Climbing Minneapolis Center
Fri 09:01:24 PM 43.8658 -92.6375 161° South 409 471 24,900 1,268 Climbing Minneapolis Center
Fri 09:02:25 PM 43.7578 -92.5906 163° South 407 468 25,400 1,024 Climbing Minneapolis Center
Fri 09:03:27 PM 43.6444 -92.5753 174° South 410 472 27,000 774 Climbing Minneapolis Center
Fri 09:04:29 PM 43.5256 -92.5567 174° South 423 487 27,000  Level Minneapolis Center
Fri 09:05:31 PM 43.3817 -92.5311 173° South 439 505 27,000  Level Minneapolis Center
Fri 09:06:45 PM 43.2553 -92.5119 174° South 457 526 27,000  Level Minneapolis Center
Fri 09:07:47 PM 43.1072 -92.4872 173° South 453 521 27,000  Level Minneapolis Center
Fri 09:08:49 PM 42.9808 -92.4669 173° South 461 531 27,000  Level Minneapolis Center
Fri 09:09:38 PM 42.8781 -92.4500 173° South 469 540 27,000  Level Minneapolis Center
Fri 09:10:42 PM 42.7242 -92.4497 180° South 470 541 27,000 333 Level Chicago Center
Fri 09:11:44 PM 42.6053 -92.5147 202° Southwest 467 537 27,700 484 Climbing Chicago Center
Fri 09:12:46 PM 42.4875 -92.5811 203° Southwest 464 534 28,000 149 Climbing Chicago Center
Fri 09:13:45 PM 42.3711 -92.6478 203° Southwest 463 533 28,000  Level Minneapolis Center
Fri 09:14:47 PM 42.2533 -92.7139 203° Southwest 463 533 28,000  Level Minneapolis Center
Fri 09:15:49 PM 42.1119 -92.7925 202° Southwest 463 533 28,000  Level Minneapolis Center
Fri 09:16:51 PM 41.9939 -92.8597 203° Southwest 465 535 28,000  Level Minneapolis Center
Fri 09:17:52 PM 41.8794 -92.9219 202° Southwest 467 537 28,000  Level Minneapolis Center
Fri 09:18:54 PM 41.7611 -92.9872 202° Southwest 466 536 28,000  Level Minneapolis Center
Fri 09:19:56 PM 41.6194 -93.0661 203° Southwest 464 534 28,000 581 Level Minneapolis Center
Fri 09:20:58 PM 41.5042 -93.1286 202° Southwest 457 526 29,200 968 Climbing Minneapolis Center
Fri 09:22:00 PM 41.3911 -93.1903 202° Southwest 448 516 30,000 245 Climbing Minneapolis Center
Fri 09:24:14 PM 41.1458 -93.3189 202° Southwest 438 504 30,000  Level Kansas City Center
Fri 09:25:16 PM 41.0100 -93.3936 203° Southwest 444 511 30,000  Level Kansas City Center
Fri 09:26:10 PM 40.9203 -93.4417 202° Southwest 441 507 30,000  Level Chicago Center
Fri 09:27:12 PM 40.8061 -93.5011 202° Southwest 444 511 30,000  Level Chicago Center
Fri 09:28:14 PM 40.6722 -93.5739 202° Southwest 441 507 30,000  Level Chicago Center
Fri 09:29:16 PM 40.5583 -93.6322 201° Southwest 444 511 30,000  Level Chicago Center
Fri 09:29:48 PM 40.4900 -93.6694 203° Southwest 444 511 30,000  Level Minneapolis Center
Fri 09:30:50 PM 40.3769 -93.7278 201° Southwest 443 510 30,000  Level Minneapolis Center
Fri 09:31:27 PM 40.3119 -93.7631 202° Southwest 439 505 30,000  Level Kansas City Center
Fri 09:32:29 PM 40.1972 -93.8231 202° Southwest 445 512 30,000  Level Kansas City Center
Fri 09:33:31 PM 40.0800 -93.8833 201° Southwest 454 522 30,000  Level Kansas City Center
Fri 09:34:33 PM 39.9636 -93.9428 201° Southwest 454 522 30,000 -48 Level Kansas City Center
Fri 09:35:35 PM 39.8281 -94.0142 202° Southwest 445 512 29,900  Descending Kansas City Center
Fri 09:36:36 PM 39.7061 -94.0772 202° Southwest 447 514 30,000 49 Climbing Kansas City Center
Fri 09:37:38 PM 39.5944 -94.1347 202° Southwest 450 518 30,000  Level Kansas City Center
Fri 09:38:40 PM 39.4819 -94.1919 201° Southwest 451 519 30,000  Level Kansas City Center
Fri 09:39:42 PM 39.3511 -94.2586 202° Southwest 450 518 30,000  Level Kansas City Center
Fri 09:40:43 PM 39.2392 -94.3153 201° Southwest 449 517 30,000  Level Kansas City Center
Fri 09:41:45 PM 39.1075 -94.3806 201° Southwest 452 520 30,000  Level Kansas City Center
Fri 09:42:47 PM 38.9947 -94.4383 202° Southwest 453 521 30,000  Level Kansas City Center
Fri 09:43:48 PM 38.8814 -94.4942 201° Southwest 452 520 30,000  Level Kansas City Center
Fri 09:44:50 PM 38.7503 -94.5606 202° Southwest 451 519 30,000  Level Kansas City Center
Fri 09:45:52 PM 38.6367 -94.6175 201° Southwest 456 525 30,000  Level Kansas City Center
Fri 09:46:53 PM 38.5053 -94.6833 201° Southwest 452 520 30,000  Level Kansas City Center
Fri 09:47:55 PM 38.3919 -94.7383 201° Southwest 454 522 30,000  Level Kansas City Center
Fri 09:48:57 PM 38.2611 -94.8025 201° Southwest 450 518 30,000  Level Kansas City Center
Fri 09:49:58 PM 38.1478 -94.8583 201° Southwest 452 520 30,000 49 Level Kansas City Center
Fri 09:51:00 PM 38.0353 -94.9139 201° Southwest 453 521 30,100 871 Climbing Kansas City Center
Fri 09:52:02 PM 37.9033 -94.9786 201° Southwest 454 522 31,800 927 Climbing Kansas City Center
Fri 09:53:03 PM 37.7925 -95.0297 200° South 446 513 32,000 98 Climbing Kansas City Center
Fri 09:54:05 PM 37.6672 -95.0908 201° Southwest 445 512 32,000  Level Kansas City Center
Fri 09:55:07 PM 37.5503 -95.1494 202° Southwest 449 517 32,000  Level Kansas City Center
Fri 09:56:09 PM 37.4342 -95.2042 201° Southwest 447 514 32,000  Level Kansas City Center
Fri 09:57:10 PM 37.3172 -95.2622 202° Southwest 449 517 32,000 244 Level Kansas City Center
Fri 09:58:12 PM 37.2011 -95.3164 200° South 446 513 32,500 1,258 Climbing Kansas City Center
Fri 09:59:14 PM 37.0853 -95.3706 200° South 444 511 34,600 1,610 Climbing Kansas City Center
Fri 10:00:15 PM 36.9522 -95.4331 201° Southwest 429 494 35,800 1,171 Climbing Kansas City Center
Fri 10:01:17 PM 36.8325 -95.4439 184° South 434 499 37,000 1,065 Climbing Kansas City Center
Fri 10:02:19 PM 36.7144 -95.4336 176° South 428 493 38,000 488 Climbing Kansas City Center
Fri 10:03:20 PM 36.5967 -95.4236 176° South 428 493 38,000  Level Kansas City Center
Fri 10:04:22 PM 36.4775 -95.4131 176° South 428 493 38,000  Level Kansas City Center
Fri 10:05:23 PM 36.3564 -95.4022 176° South 432 497 38,000  Level Kansas City Center
Fri 10:06:25 PM 36.2350 -95.3925 176° South 435 501 38,000  Level Kansas City Center
Fri 10:07:27 PM 36.0914 -95.3797 176° South 432 497 38,000  Level Kansas City Center
Fri 10:08:28 PM 35.9803 -95.3706 176° South 431 496 38,000  Level Kansas City Center
Fri 10:09:30 PM 35.8597 -95.3606 176° South 433 498 38,000  Level Kansas City Center
Fri 10:10:31 PM 35.7386 -95.3497 176° South 434 499 38,000  Level Kansas City Center
Fri 10:11:33 PM 35.6178 -95.3394 176° South 434 499 38,000  Level Kansas City Center
Fri 10:12:35 PM 35.4742 -95.3269 176° South 431 496 38,000  Level Kansas City Center
Fri 10:13:36 PM 35.3539 -95.3186 177° South 432 497 38,000 -341 Level Kansas City Center
Fri 10:14:38 PM 35.2336 -95.3075 176° South 432 497 37,300 -919 Descending Kansas City Center
Fri 10:15:40 PM 35.1122 -95.2986 177° South 433 498 36,100 -1,073 Descending Kansas City Center
Fri 10:16:41 PM 34.9889 -95.2878 176° South 440 506 35,100 -537 Descending Kansas City Center
Fri 10:17:43 PM 34.8633 -95.2778 176° South 448 516 35,000 -41 Descending Kansas City Center
Fri 10:19:06 PM 34.6911 -95.2644 176° South 447 514 35,000 -208 Level Fort Worth Center
Fri 10:20:07 PM 34.5556 -95.2578 178° South 441 507 34,500 -750 Descending Fort Worth Center
Fri 10:21:06 PM 34.4372 -95.3033 198° South 441 507 33,500 -958 Descending Fort Worth Center
Fri 10:22:06 PM 34.3450 -95.3964 220° Southwest 423 487 32,600 -950 Descending Fort Worth Center
Fri 10:23:06 PM 34.2547 -95.4914 221° Southwest 428 493 31,600 -992 Descending Fort Worth Center
Fri 10:24:07 PM 34.1622 -95.5836 220° Southwest 428 493 30,600 -942 Descending Fort Worth Center
Fri 10:25:07 PM 34.0778 -95.6758 222° Southwest 428 493 29,700 -958 Descending Fort Worth Center
Fri 10:26:06 PM 33.9914 -95.7653 221° Southwest 423 487 28,700 -1,412 Descending Fort Worth Center
Fri 10:27:06 PM 33.9450 -95.8886 246° West 401 461 26,900 -2,300 Descending Fort Worth Center
Fri 10:28:06 PM 33.9422 -96.0139 269° West 395 455 24,100 -2,150 Descending Fort Worth Center
Fri 10:29:06 PM 33.8722 -96.1078 228° Southwest 377 434 22,600 -2,000 Descending Fort Worth Center
Fri 10:30:06 PM 33.7622 -96.1492 197° South 361 415 20,100 -2,350 Descending Fort Worth Center
Fri 10:31:06 PM 33.6625 -96.1881 198° South 374 430 17,900 -2,250 Descending Fort Worth Center
Fri 10:32:06 PM 33.5667 -96.2244 198° South 374 430 15,600 -2,000 Descending Fort Worth Center
Fri 10:33:06 PM 33.4900 -96.2903 216° Southwest 355 409 13,900 -2,150 Descending Fort Worth Center
Fri 10:34:06 PM 33.4322 -96.3606 225° Southwest 317 365 11,300 -1,650 Descending Fort Worth Center
Fri 10:35:06 PM 33.3806 -96.4358 231° Southwest 302 348 10,600 -1,085 Descending Fort Worth Center
Fri 10:35:40 PM 33.3667 -96.4833 251° West 290 334 9,600 -1,189 Descending Dallas / Fort Worth TRACON
Fri 10:36:52 PM 33.3167 -96.5833 239° Southwest 285 328 8,500 -1,045 Descending Dallas / Fort Worth TRACON
Fri 10:37:52 PM 33.2833 -96.6667 244° Southwest 267 307 7,300 -1,105 Descending Dallas / Fort Worth TRACON
Fri 10:38:46 PM 33.2500 -96.7333 239° Southwest 268 308 6,400 -1,000 Descending Dallas / Fort Worth TRACON
Fri 10:39:58 PM 33.2167 -96.8333 248° West 269 310 5,200 -750 Descending Dallas / Fort Worth TRACON
Fri 10:40:46 PM 33.2000 -96.8833 248° West 216 249 4,900 -600 Descending Dallas / Fort Worth TRACON
Fri 10:41:58 PM 33.1667 -96.9667 244° Southwest 197 227 4,000 -450 Descending Dallas / Fort Worth TRACON
Fri 10:42:46 PM 33.1500 -97.0167 248° West 177 204 4,000  Level Dallas / Fort Worth TRACON
Fri 10:43:46 PM 33.1167 -97.0167 180° South 151 174 4,000 -298 Level Dallas / Fort Worth TRACON
Fri 10:44:47 PM 33.0667 -97.0167 180° South 154 177 3,400 -590 Descending Dallas / Fort Worth TRACON

Login

Don't have an account? Register now (free) for customized features, flight alerts, and more!